Time;durP1;ratioP1;P1;durP2;ratioP2;P2;SDS_P1;SDS_P2;PMS_P1;PMS_P2;Temp;Humidity;BMP_temperature;BMP_pressure;BME280_temperature;BME280_humidity;BME280_pressure;Samples;Min_cycle;Max_cycle;Signal;HPM_P1;HPM_P2
2021/07/09 03:30:17;;;;;;;8.70;4.57;;;;;;;20.99;65.37;99028.34;8319219;23;20216;-86
2021/07/09 03:33:39;;;;;;;6.10;4.80;;;;;;;20.60;66.00;98992.19;6883209;28;20649;-85
2021/07/09 03:37:00;;;;;;;6.40;5.00;;;;;;;20.57;66.04;99024.78;6870015;28;20212;-86
2021/07/09 03:40:22;;;;;;;5.37;4.83;;;;;;;20.77;65.49;99029.28;6894274;28;20215;-85
2021/07/09 03:43:44;;;;;;;5.67;5.03;;;;;;;20.69;65.61;99012.50;6895857;28;20232;-86
2021/07/09 03:47:07;;;;;;;6.10;5.60;;;;;;;20.14;66.53;98965.56;6896520;28;20605;-86
2021/07/09 03:50:28;;;;;;;6.20;5.37;;;;;;;20.54;66.94;99028.84;6895355;28;20266;-86
2021/07/09 03:53:55;;;;;;;5.90;5.20;;;;;;;20.52;66.55;99019.25;6894205;28;20216;-84
2021/07/09 03:57:19;;;;;;;6.10;5.43;;;;;;;20.62;65.74;99030.25;6893196;28;20200;-86
2021/07/09 04:00:41;;;;;;;6.30;5.47;;;;;;;20.62;65.77;99028.34;6894497;28;20221;-86
2021/07/09 04:04:04;;;;;;;6.77;5.43;;;;;;;20.62;66.29;99035.72;6875181;28;20220;-86
2021/07/09 04:07:25;;;;;;;7.53;5.13;;;;;;;20.61;66.11;99004.78;6869721;28;20216;-85
2021/07/09 04:10:47;;;;;;;5.57;5.00;;;;;;;20.27;66.61;99014.41;6867483;28;20225;-86
2021/07/09 04:14:09;;;;;;;8.50;5.57;;;;;;;20.18;66.86;99024.19;6868854;28;20658;-86
2021/07/09 04:17:30;;;;;;;5.43;4.90;;;;;;;20.29;67.45;99025.91;6867331;28;20201;-86
2021/07/09 04:20:53;;;;;;;8.53;5.47;;;;;;;20.04;68.52;99049.50;6867683;28;20232;-88
2021/07/09 04:24:15;;;;;;;5.80;5.20;;;;;;;20.08;67.84;99006.84;6870871;28;20227;-86
2021/07/09 04:27:37;;;;;;;9.40;5.10;;;;;;;20.27;67.74;99050.00;6866742;28;20246;-87
2021/07/09 04:30:58;;;;;;;7.43;5.27;;;;;;;20.45;67.19;99046.84;6852883;28;20224;-84
2021/07/09 04:34:20;;;;;;;5.90;5.23;;;;;;;20.05;67.88;99051.94;6845905;28;20237;-86
2021/07/09 04:37:43;;;;;;;8.47;5.67;;;;;;;20.09;67.30;99052.28;6854112;28;20212;-85
2021/07/09 04:41:05;;;;;;;6.50;5.90;;;;;;;20.06;68.44;99069.22;6869005;28;20229;-88
2021/07/09 04:44:32;;;;;;;6.27;5.20;;;;;;;19.81;68.22;99030.66;6843135;28;20238;-87
2021/07/09 04:47:54;;;;;;;7.60;5.93;;;;;;;20.06;68.33;99059.13;6841834;29;20542;-88
2021/07/09 04:51:16;;;;;;;5.70;4.80;;;;;;;20.10;68.28;99067.66;6841746;29;20240;-87
2021/07/09 04:54:38;;;;;;;6.00;5.30;;;;;;;19.94;68.20;99052.94;6842132;28;20214;-87
2021/07/09 04:58:00;;;;;;;5.83;5.33;;;;;;;19.46;69.83;99061.19;6849935;28;20204;-85
2021/07/09 05:01:22;;;;;;;8.80;5.60;;;;;;;19.67;68.92;99045.81;6869189;28;20236;-87
2021/07/09 05:04:43;;;;;;;6.60;5.87;;;;;;;19.70;68.79;99050.78;6868555;28;20688;-87
2021/07/09 05:08:05;;;;;;;5.97;5.20;;;;;;;19.90;68.64;99089.31;6868036;28;20201;-87
2021/07/09 05:11:28;;;;;;;6.63;5.00;;;;;;;19.86;68.45;99082.72;6868341;28;20262;-86
2021/07/09 05:14:50;;;;;;;7.27;4.90;;;;;;;20.17;67.64;99081.94;6868717;28;20212;-86
2021/07/09 05:18:11;;;;;;;6.27;5.13;;;;;;;20.28;67.34;99095.47;6867263;28;20666;-86
2021/07/09 05:21:33;;;;;;;8.27;5.93;;;;;;;20.07;67.83;99084.59;6870103;28;20221;-86
2021/07/09 05:24:55;;;;;;;5.80;5.27;;;;;;;20.12;67.69;99101.06;6869047;28;20285;-86
2021/07/09 05:28:18;;;;;;;4.77;4.23;;;;;;;20.29;67.24;99091.63;6860509;28;20206;-86
2021/07/09 05:31:41;;;;;;;6.10;5.50;;;;;;;20.18;67.06;99106.34;6843914;28;20236;-87
2021/07/09 05:35:03;;;;;;;4.97;4.57;;;;;;;20.32;67.25;99107.56;6843062;28;20237;-87
2021/07/09 05:38:24;;;;;;;6.07;4.97;;;;;;;20.39;66.71;99101.88;6844871;28;20210;-86
2021/07/09 05:41:46;;;;;;;5.57;4.73;;;;;;;20.55;66.19;99090.78;6853956;28;20765;-86
2021/07/09 05:45:09;;;;;;;5.77;5.17;;;;;;;20.64;66.35;99113.84;6841516;28;20234;-88
2021/07/09 05:48:46;;;;;;;4.80;4.30;;;;;;;20.95;65.73;99124.00;6860479;28;20190;-86
2021/07/09 05:52:08;;;;;;;5.60;4.03;;;;;;;21.06;64.71;99125.72;6841405;28;20234;-87
2021/07/09 05:55:30;;;;;;;6.77;3.97;;;;;;;20.90;64.59;99125.88;6861066;28;20228;-86
2021/07/09 05:58:52;;;;;;;6.30;4.00;;;;;;;21.00;63.85;99107.59;6879194;28;20227;-87
2021/07/09 06:02:15;;;;;;;4.33;3.93;;;;;;;20.78;64.11;99129.56;6874216;28;20229;-87
2021/07/09 06:05:36;;;;;;;5.33;4.10;;;;;;;20.64;64.84;99127.53;6857185;28;20591;-87
2021/07/09 06:08:58;;;;;;;5.93;4.27;;;;;;;20.83;64.22;99102.22;6859967;28;20209;-86
2021/07/09 06:12:20;;;;;;;7.10;4.57;;;;;;;21.14;63.60;99138.94;6862859;28;20229;-87
2021/07/09 06:15:41;;;;;;;7.67;4.60;;;;;;;20.99;64.68;99147.03;6860550;28;20623;-86
2021/07/09 06:19:04;;;;;;;7.23;4.70;;;;;;;21.03;63.98;99148.16;6847741;28;20206;-86
2021/07/09 06:22:26;;;;;;;5.23;4.77;;;;;;;21.02;64.34;99146.53;6839820;29;20234;-87
2021/07/09 06:25:48;;;;;;;5.57;4.80;;;;;;;21.12;63.96;99156.72;6850953;28;20697;-87
2021/07/09 06:29:10;;;;;;;5.43;4.37;;;;;;;21.11;64.09;99164.13;6839870;29;20221;-87
2021/07/09 06:32:32;;;;;;;5.37;4.73;;;;;;;20.89;64.09;99146.97;6840287;29;20240;-87
2021/07/09 06:35:55;;;;;;;6.43;5.20;;;;;;;20.66;65.57;99166.50;6848737;28;20253;-85
2021/07/09 06:39:17;;;;;;;6.37;4.77;;;;;;;20.78;64.80;99167.94;6849955;28;20212;-85
2021/07/09 06:42:39;;;;;;;6.27;5.03;;;;;;;20.96;64.28;99179.63;6862833;28;20225;-87
2021/07/09 06:46:01;;;;;;;5.60;5.10;;;;;;;20.93;64.53;99161.78;6857468;28;20202;-88
2021/07/09 06:49:23;;;;;;;6.00;5.50;;;;;;;20.80;65.52;99172.38;6867496;28;20678;-86
2021/07/09 06:52:46;;;;;;;9.23;5.47;;;;;;;20.72;65.31;99150.91;6867976;28;20233;-86
2021/07/09 06:56:08;;;;;;;6.60;5.50;;;;;;;20.86;64.88;99163.91;6861256;28;20639;-87
2021/07/09 06:59:30;;;;;;;5.60;5.10;;;;;;;21.06;64.43;99190.69;6856881;28;20351;-85
2021/07/09 07:02:52;;;;;;;7.03;5.87;;;;;;;21.09;64.14;99196.47;6862126;28;20236;-87
2021/07/09 07:06:14;;;;;;;7.73;5.37;;;;;;;20.94;64.42;99155.22;6869080;28;20205;-84
2021/07/09 07:09:38;;;;;;;5.93;5.43;;;;;;;21.28;64.18;99198.53;6863845;28;20197;-87
2021/07/09 07:13:00;;;;;;;5.97;5.47;;;;;;;21.70;63.26;99196.59;6866093;28;20225;-85
2021/07/09 07:16:21;;;;;;;7.73;5.13;;;;;;;21.49;63.22;99200.28;6855355;28;20213;-82
2021/07/09 07:19:43;;;;;;;6.33;5.70;;;;;;;21.53;62.69;99187.72;6850795;28;20197;-85
2021/07/09 07:23:05;;;;;;;6.33;5.83;;;;;;;21.45;63.28;99185.47;6859013;28;20237;-87
2021/07/09 07:26:28;;;;;;;6.57;5.70;;;;;;;21.59;62.69;99178.41;6855319;28;20221;-86
2021/07/09 07:29:50;;;;;;;7.07;6.40;;;;;;;21.18;63.93;99197.66;6839239;28;20213;-85
2021/07/09 07:33:11;;;;;;;6.40;5.77;;;;;;;21.46;64.04;99197.25;6847526;28;20247;-86
2021/07/09 07:36:33;;;;;;;8.00;6.70;;;;;;;21.22;65.24;99223.44;6839526;28;20209;-85
2021/07/09 07:39:55;;;;;;;9.10;6.73;;;;;;;21.34;64.65;99226.81;6838677;28;20216;-85
2021/07/09 07:43:18;;;;;;;8.67;6.50;;;;;;;21.55;64.55;99221.19;6849359;28;20891;-85
2021/07/09 07:46:40;;;;;;;7.77;6.97;;;;;;;21.44;64.09;99208.53;6871316;28;20201;-85
2021/07/09 07:50:02;;;;;;;7.83;6.87;;;;;;;21.05;65.29;99202.75;6874272;28;20197;-86
2021/07/09 07:53:24;;;;;;;7.27;6.57;;;;;;;21.13;64.34;99199.50;6865529;28;20224;-87
2021/07/09 07:56:45;;;;;;;8.30;6.30;;;;;;;21.41;64.08;99183.50;6870592;28;20205;-85
2021/07/09 08:00:10;;;;;;;7.47;6.77;;;;;;;21.73;63.80;99192.50;6875292;28;20213;-85
2021/07/09 08:03:31;;;;;;;8.10;6.03;;;;;;;21.79;63.55;99221.63;6874531;28;20225;-85
2021/07/09 08:06:53;;;;;;;7.50;6.80;;;;;;;21.70;64.31;99215.81;6856755;28;20209;-84
2021/07/09 08:10:15;;;;;;;6.87;6.27;;;;;;;21.67;63.23;99205.38;6859691;28;20194;-85
2021/07/09 08:13:38;;;;;;;6.70;6.10;;;;;;;21.55;63.18;99165.50;6854086;28;20213;-84
2021/07/09 08:17:01;;;;;;;7.83;6.30;;;;;;;21.78;63.06;99212.56;6852106;28;20206;-84
2021/07/09 08:20:23;;;;;;;6.80;6.10;;;;;;;22.35;63.06;99220.75;6864989;28;20205;-85
2021/07/09 08:23:44;;;;;;;7.60;5.90;;;;;;;22.03;63.05;99212.69;6877860;28;20229;-85
2021/07/09 08:27:06;;;;;;;7.10;6.50;;;;;;;22.30;62.87;99213.31;6870699;28;20689;-85
2021/07/09 08:30:28;;;;;;;7.23;6.53;;;;;;;22.64;62.43;99221.94;6880525;28;20247;-84
2021/07/09 08:33:52;;;;;;;8.33;7.07;;;;;;;22.86;62.37;99211.50;6866131;28;20209;-84
2021/07/09 08:37:13;;;;;;;9.73;7.00;;;;;;;22.91;61.67;99206.88;6852944;29;20203;-87
2021/07/09 08:40:35;;;;;;;8.00;6.30;;;;;;;22.36;61.85;99104.25;6850239;29;20223;-84
2021/07/09 08:43:57;;;;;;;7.97;6.27;;;;;;;23.18;61.52;99210.16;6857942;28;20226;-87
2021/07/09 08:47:20;;;;;;;5.63;5.10;;;;;;;22.93;60.97;99212.91;6854622;28;20269;-84
2021/07/09 08:50:43;;;;;;;6.03;5.43;;;;;;;23.47;59.63;99221.41;6855384;29;20241;-85
2021/07/09 08:54:10;;;;;;;6.13;5.43;;;;;;;23.91;60.06;99201.22;6852537;29;20233;-86
2021/07/09 08:57:32;;;;;;;9.17;4.90;;;;;;;24.54;57.07;99224.34;6854823;29;20194;-86
2021/07/09 09:00:54;;;;;;;5.63;5.00;;;;;;;24.43;57.05;99226.31;6853327;29;20245;-86
2021/07/09 09:04:15;;;;;;;5.50;5.00;;;;;;;24.24;58.22;99211.53;6854021;28;20699;-85
2021/07/09 09:07:38;;;;;;;6.73;5.40;;;;;;;24.31;57.20;99219.50;6876552;28;20414;-85
2021/07/09 09:11:00;;;;;;;6.60;4.77;;;;;;;24.22;55.56;99205.50;6880480;28;20222;-85
2021/07/09 09:14:23;;;;;;;7.13;5.03;;;;;;;24.65;54.54;99231.47;6859678;28;20590;-85
2021/07/09 09:17:45;;;;;;;6.40;5.10;;;;;;;24.06;55.74;99239.72;6876541;28;20205;-85
2021/07/09 09:21:09;;;;;;;5.53;4.70;;;;;;;24.24;56.28;99238.28;6880253;28;20234;-86
2021/07/09 09:24:32;;;;;;;6.07;5.27;;;;;;;24.26;55.84;99230.56;6881256;28;20228;-85
2021/07/09 09:28:03;;;;;;;8.57;5.30;;;;;;;24.24;55.84;99203.25;6885089;28;20217;-85
2021/07/09 09:31:27;;;;;;;8.13;5.97;;;;;;;24.30;56.87;99212.34;6889022;28;20260;-86
2021/07/09 09:34:49;;;;;;;5.30;4.80;;;;;;;25.16;52.98;99214.25;6892741;28;20211;-86
2021/07/09 09:38:13;;;;;;;8.93;5.13;;;;;;;25.59;53.23;99240.09;6884987;28;20208;-85
2021/07/09 09:41:36;;;;;;;5.17;4.40;;;;;;;25.26;51.30;99224.41;6863513;28;20231;-84
2021/07/09 09:45:02;;;;;;;5.57;4.90;;;;;;;25.91;50.92;99230.09;6869917;28;20224;-86
2021/07/09 09:48:23;;;;;;;5.00;4.17;;;;;;;24.94;50.75;99230.41;6854068;29;20214;-86
2021/07/09 09:51:51;;;;;;;5.50;4.40;;;;;;;24.69;52.28;99241.63;6861633;28;20235;-86
2021/07/09 09:55:15;;;;;;;5.10;4.57;;;;;;;25.24;50.27;99224.69;6880809;28;20202;-86
2021/07/09 09:58:38;;;;;;;4.60;4.20;;;;;;;24.68;51.98;99226.22;6881240;28;20584;-86
2021/07/09 10:02:02;;;;;;;5.50;4.63;;;;;;;25.33;50.55;99222.13;6882564;28;20246;-84
2021/07/09 10:05:24;;;;;;;4.63;4.20;;;;;;;25.62;50.88;99220.16;6880868;28;20238;-86
2021/07/09 10:08:46;;;;;;;6.73;4.90;;;;;;;25.47;49.41;99223.91;6878549;28;20200;-88
2021/07/09 10:12:10;;;;;;;7.67;5.10;;;;;;;25.11;50.45;99211.53;6880107;28;20228;-86
2021/07/09 10:15:33;;;;;;;6.97;4.53;;;;;;;26.12;48.38;99223.19;6876359;28;20570;-88
2021/07/09 10:18:56;;;;;;;5.07;4.57;;;;;;;25.67;48.96;99229.22;6875888;28;20223;-91
2021/07/09 10:22:17;;;;;;;6.93;4.30;;;;;;;25.72;49.28;99218.09;6876014;28;20226;-87
2021/07/09 10:25:39;;;;;;;4.73;4.30;;;;;;;25.45;49.71;99203.22;6875976;28;20233;-88
2021/07/09 10:29:14;;;;;;;4.40;4.00;;;;;;;25.66;48.85;99210.19;6869790;28;20208;-87
2021/07/09 10:32:39;;;;;;;5.03;3.83;;;;;;;25.91;48.69;99219.06;6858243;28;20254;-87
2021/07/09 10:36:05;;;;;;;4.13;3.53;;;;;;;25.65;47.25;99220.41;6865494;28;20205;-87
2021/07/09 10:39:38;;;;;;;5.50;3.90;;;;;;;25.36;47.18;99183.69;6853153;28;20201;-87
2021/07/09 10:43:00;;;;;;;4.80;3.87;;;;;;;25.25;47.30;99211.72;6869574;28;20238;-86
2021/07/09 10:46:33;;;;;;;4.87;4.17;;;;;;;25.43;48.65;99209.03;6855823;28;20217;-86
2021/07/09 10:49:59;;;;;;;4.30;3.87;;;;;;;26.14;46.85;99178.69;6854536;28;20203;-86
2021/07/09 10:53:25;;;;;;;6.27;3.77;;;;;;;25.74;47.27;99220.59;6851986;28;20225;-87
2021/07/09 10:56:47;;;;;;;5.40;3.77;;;;;;;25.69;47.10;99218.72;6854746;28;20745;-89
2021/07/09 11:00:21;;;;;;;4.13;3.50;;;;;;;26.32;44.83;99213.81;6849232;28;20585;-88
2021/07/09 11:03:44;;;;;;;4.27;3.40;;;;;;;26.02;46.16;99200.41;6872449;28;20220;-87
2021/07/09 11:07:22;;;;;;;5.23;3.63;;;;;;;26.51;44.63;99214.66;6879534;28;20212;-87
2021/07/09 11:10:56;;;;;;;5.47;3.77;;;;;;;26.14;45.16;99185.00;6875266;28;20227;-87
2021/07/09 11:14:23;;;;;;;3.47;3.17;;;;;;;27.11;43.60;99191.59;6881965;28;20289;-87
2021/07/09 11:17:44;;;;;;;4.43;3.70;;;;;;;26.56;44.41;99215.47;6875974;28;20198;-87
2021/07/09 11:21:08;;;;;;;4.77;3.30;;;;;;;27.16;44.76;99172.16;6864624;28;20304;-88
2021/07/09 11:24:34;;;;;;;3.80;3.40;;;;;;;27.40;42.70;99197.75;6883171;28;20224;-88
2021/07/09 11:27:56;;;;;;;5.27;3.50;;;;;;;27.45;41.59;99123.72;6862670;28;20217;-87
2021/07/09 11:31:30;;;;;;;4.90;3.70;;;;;;;28.47;42.16;99201.72;6867393;28;20777;-88
2021/07/09 11:34:53;;;;;;;4.23;3.83;;;;;;;27.91;42.08;99192.94;6856868;28;20213;-88
2021/07/09 11:38:14;;;;;;;3.80;3.40;;;;;;;29.15;40.08;99188.44;6854674;28;20205;-87
2021/07/09 11:41:53;;;;;;;5.57;3.77;;;;;;;28.43;40.58;99184.06;6861926;28;20218;-86
2021/07/09 11:45:18;;;;;;;5.33;4.57;;;;;;;28.51;40.41;99145.31;6871888;28;20229;-85
2021/07/09 11:48:40;;;;;;;6.53;4.90;;;;;;;27.66;41.15;99171.25;6867037;28;20212;-86
2021/07/09 11:52:05;;;;;;;4.60;4.30;;;;;;;28.91;40.74;99183.16;6878792;28;20225;-88
2021/07/09 11:55:28;;;;;;;5.17;4.70;;;;;;;28.06;37.74;99179.56;6884711;28;20204;-87
2021/07/09 11:59:15;;;;;;;6.20;4.53;;;;;;;27.23;38.41;99142.97;6894130;28;20209;-90
2021/07/09 12:02:37;;;;;;;5.03;4.57;;;;;;;27.87;39.58;99181.63;6883716;28;20591;-89
2021/07/09 12:05:58;;;;;;;5.10;4.60;;;;;;;28.82;37.86;99165.63;6883647;28;20237;-87
2021/07/09 12:09:20;;;;;;;4.47;4.03;;;;;;;28.37;37.56;99118.75;6877198;28;20207;-86
2021/07/09 12:12:43;;;;;;;5.17;4.67;;;;;;;28.85;36.99;99180.84;6880696;28;20232;-90
2021/07/09 12:16:07;;;;;;;4.40;4.07;;;;;;;28.66;37.60;99153.25;6882759;28;20209;-87
2021/07/09 12:19:28;;;;;;;5.40;4.90;;;;;;;28.55;37.41;99109.44;6880675;28;20205;-90
2021/07/09 12:22:53;;;;;;;4.80;4.40;;;;;;;28.30;38.85;99171.81;6880635;28;20235;-89
2021/07/09 12:26:15;;;;;;;5.80;5.17;;;;;;;27.77;39.17;99131.13;6876678;28;20241;-87
2021/07/09 12:29:36;;;;;;;8.13;5.87;;;;;;;27.10;41.68;99176.13;6875295;28;20197;-87
2021/07/09 12:33:05;;;;;;;7.10;5.57;;;;;;;26.96;42.58;99158.66;6874961;28;20236;-87
2021/07/09 12:36:27;;;;;;;6.40;5.80;;;;;;;26.89;46.51;99185.91;6863448;28;20265;-87
2021/07/09 12:39:48;;;;;;;7.10;6.27;;;;;;;27.28;43.57;99176.09;6876596;28;20209;-87
2021/07/09 12:43:12;;;;;;;11.20;5.97;;;;;;;27.12;43.63;99182.16;6878970;28;20231;-87
2021/07/09 12:46:35;;;;;;;6.87;6.00;;;;;;;27.46;42.48;99172.44;6879100;28;20233;-86
2021/07/09 12:50:17;;;;;;;6.87;6.17;;;;;;;27.41;42.68;99167.00;6875803;28;20300;-87
2021/07/09 12:53:39;;;;;;;6.97;6.27;;;;;;;27.68;41.70;99119.94;6877199;28;20230;-89
2021/07/09 12:57:02;;;;;;;6.60;5.93;;;;;;;27.93;41.77;99161.00;6887580;28;20201;-88
2021/07/09 13:00:24;;;;;;;4.87;4.40;;;;;;;28.11;40.78;99176.69;6886754;28;20201;-87
2021/07/09 13:03:47;;;;;;;6.70;4.60;;;;;;;27.49;40.17;99165.47;6890796;28;20232;-89
2021/07/09 13:07:12;;;;;;;6.10;4.40;;;;;;;27.96;39.73;99160.38;6895379;28;20269;-89
2021/07/09 13:10:33;;;;;;;5.87;5.27;;;;;;;27.51;39.66;99138.28;6891697;28;20229;-89
2021/07/09 13:13:57;;;;;;;5.67;5.10;;;;;;;27.59;41.18;99137.56;6869924;28;20209;-88
2021/07/09 13:17:20;;;;;;;5.10;4.60;;;;;;;27.48;39.60;99175.72;6862774;28;20205;-89
2021/07/09 13:20:41;;;;;;;4.83;4.43;;;;;;;27.94;40.30;99170.94;6862529;28;20309;-89
2021/07/09 13:24:11;;;;;;;5.23;4.67;;;;;;;27.77;40.12;99122.78;6872340;28;20256;-88
2021/07/09 13:27:35;;;;;;;6.23;4.63;;;;;;;28.47;39.15;99112.94;6868690;28;20583;-88
2021/07/09 13:30:58;;;;;;;4.80;4.40;;;;;;;28.23;37.91;99081.84;6863926;28;20249;-89
2021/07/09 13:34:21;;;;;;;5.37;4.87;;;;;;;27.86;39.91;99110.72;6857840;28;20210;-88
2021/07/09 13:37:42;;;;;;;5.30;4.90;;;;;;;27.13;41.47;99172.75;6889494;28;20208;-88
2021/07/09 13:41:06;;;;;;;6.73;5.07;;;;;;;27.52;42.25;99187.00;6877351;28;20216;-88
2021/07/09 13:44:28;;;;;;;6.47;5.97;;;;;;;27.40;49.02;99190.28;6883020;28;20314;-87
2021/07/09 13:47:49;;;;;;;8.27;7.43;;;;;;;27.57;51.12;99190.53;6877010;28;20197;-87
2021/07/09 13:51:14;;;;;;;8.33;7.63;;;;;;;26.54;51.95;99184.50;6879196;28;20229;-90
2021/07/09 13:54:35;;;;;;;8.97;6.03;;;;;;;26.46;49.09;99195.38;6861936;29;20224;-90
2021/07/09 13:57:58;;;;;;;7.27;6.47;;;;;;;26.20;50.28;99188.56;6868357;28;20208;-90
2021/07/09 14:01:20;;;;;;;7.40;6.70;;;;;;;27.25;50.66;99193.31;6870995;28;20235;-90
2021/07/09 14:04:42;;;;;;;8.73;6.30;;;;;;;27.36;49.82;99160.75;6873972;28;20227;-90
2021/07/09 14:08:04;;;;;;;9.90;7.63;;;;;;;27.59;50.60;99192.97;6880282;28;20206;-90
2021/07/09 14:11:29;;;;;;;7.77;7.07;;;;;;;26.77;51.13;99191.06;6878811;28;20676;-88
2021/07/09 14:18:47;;;;;;;6.47;5.87;;;;;;;27.79;50.48;99174.03;6863240;28;20207;-88
2021/07/09 14:22:09;;;;;;;6.07;5.47;;;;;;;27.95;47.49;99139.31;6888037;28;20229;-91
2021/07/09 14:25:33;;;;;;;6.87;6.23;;;;;;;27.02;48.79;99160.22;6889053;28;20236;-89
2021/07/09 14:28:55;;;;;;;7.23;5.83;;;;;;;26.02;49.27;99181.84;6890716;28;20257;-89
2021/07/09 14:32:18;;;;;;;7.13;6.53;;;;;;;26.30;50.99;99136.69;6887772;28;20233;-89
2021/07/09 14:35:40;;;;;;;4.87;4.47;;;;;;;26.42;45.03;99156.44;6889774;28;20223;-88
2021/07/09 14:39:06;;;;;;;5.40;4.90;;;;;;;25.43;47.68;99153.00;6865918;28;20202;-89
2021/07/09 14:42:39;;;;;;;8.37;5.57;;;;;;;25.60;48.95;99190.06;6864904;29;20269;-90
2021/07/09 14:46:00;;;;;;;6.10;5.50;;;;;;;25.51;48.48;99175.28;6860721;28;20682;-90
2021/07/09 14:49:23;;;;;;;6.40;5.80;;;;;;;25.45;47.40;99129.50;6885361;28;20299;-91
2021/07/09 14:52:50;;;;;;;4.70;4.30;;;;;;;26.00;45.98;99175.81;6885528;28;20227;-90
2021/07/09 14:56:12;;;;;;;4.07;3.70;;;;;;;26.79;41.50;99180.50;6885792;28;20521;-91
2021/07/09 14:59:34;;;;;;;3.30;3.10;;;;;;;26.97;42.05;99190.75;6881963;28;20213;-91
2021/07/09 15:02:59;;;;;;;2.90;2.70;;;;;;;26.29;41.16;99171.00;6884849;28;20224;-89
2021/07/09 15:06:22;;;;;;;2.90;2.70;;;;;;;25.93;42.45;99202.16;6892222;28;20697;-91
2021/07/09 15:09:44;;;;;;;3.03;2.50;;;;;;;26.12;42.47;99203.03;6881058;28;20224;-89
2021/07/09 15:13:06;;;;;;;3.80;2.73;;;;;;;25.59;42.85;99193.94;6877869;28;20640;-90
2021/07/09 15:16:29;;;;;;;2.67;2.47;;;;;;;26.38;42.41;99183.06;6863502;28;20210;-90
2021/07/09 15:19:52;;;;;;;3.03;2.83;;;;;;;26.49;42.51;99184.53;6860478;29;20547;-88
2021/07/09 15:23:15;;;;;;;3.00;2.80;;;;;;;26.80;41.66;99185.75;6859485;28;20212;-90
2021/07/09 15:26:37;;;;;;;3.33;2.80;;;;;;;26.10;42.74;99167.41;6884371;28;20224;-90
2021/07/09 15:29:58;;;;;;;4.20;3.37;;;;;;;25.61;45.14;99164.09;6885303;28;20208;-90
2021/07/09 15:33:20;;;;;;;4.77;4.27;;;;;;;25.89;45.13;99181.75;6885430;28;20228;-90
2021/07/09 15:36:43;;;;;;;4.67;4.27;;;;;;;26.82;43.88;99177.97;6885802;28;20206;-91
2021/07/09 15:40:07;;;;;;;5.10;4.70;;;;;;;26.28;44.25;99144.47;6887934;28;20199;-90
2021/07/09 15:43:29;;;;;;;5.57;4.33;;;;;;;25.94;45.11;99182.53;6886766;28;20207;-90
2021/07/09 15:46:51;;;;;;;4.80;4.43;;;;;;;26.11;44.44;99146.09;6885876;28;20232;-90
2021/07/09 15:50:13;;;;;;;5.90;5.30;;;;;;;25.93;44.40;99125.63;6885447;28;20214;-91
2021/07/09 15:53:35;;;;;;;5.40;4.90;;;;;;;26.25;43.90;99150.59;6882244;28;20268;-91
2021/07/09 15:57:05;;;;;;;5.43;4.90;;;;;;;26.46;43.99;99167.72;6870948;28;20191;-92
2021/07/09 16:00:53;;;;;;;6.23;5.03;;;;;;;26.21;44.32;99192.97;6878913;28;20194;-90
2021/07/09 16:04:35;;;;;;;5.50;5.00;;;;;;;25.56;44.74;99108.94;6857002;28;20198;-91
2021/07/09 16:12:34;;;;;;;5.30;4.80;;;;;;;25.73;46.28;99200.41;6834376;28;20233;-95
2021/07/09 16:16:05;;;;;;;6.90;5.17;;;;;;;25.98;45.26;99149.59;6872144;28;20340;-92
2021/07/09 16:29:15;;;;;;;6.20;5.63;;;;;;;26.09;45.72;99189.81;6770604;29;20228;-96
2021/07/09 19:01:31;;;;;;;7.10;6.40;;;;;;;24.54;51.02;99200.31;6837059;28;20241;-80
2021/07/09 19:04:56;;;;;;;8.03;7.30;;;;;;;24.14;53.76;99202.50;6854967;28;20236;-80
2021/07/09 19:08:21;;;;;;;6.73;6.13;;;;;;;24.34;53.34;99219.75;6860133;28;20300;-80
2021/07/09 19:11:45;;;;;;;9.33;6.83;;;;;;;24.20;53.23;99215.16;6852767;28;20213;-78
2021/07/09 19:15:11;;;;;;;7.87;7.13;;;;;;;23.87;53.68;99224.94;6837224;29;20684;-79
2021/07/09 19:18:36;;;;;;;7.27;6.57;;;;;;;23.96;54.92;99242.50;6837079;28;20210;-78
2021/07/09 19:22:04;;;;;;;9.30;8.33;;;;;;;23.08;57.80;99253.34;6836363;28;20219;-77
2021/07/09 19:25:29;;;;;;;11.07;6.83;;;;;;;23.65;56.54;99251.13;6836100;28;20234;-76
2021/07/09 19:28:52;;;;;;;7.90;7.13;;;;;;;23.53;56.69;99245.91;6844212;28;20627;-76
2021/07/09 19:32:16;;;;;;;8.43;7.53;;;;;;;23.46;57.07;99241.78;6840943;28;20675;-78
2021/07/09 19:35:41;;;;;;;9.20;8.30;;;;;;;23.51;57.12;99250.03;6860196;28;20207;-78
2021/07/09 19:39:08;;;;;;;9.43;8.27;;;;;;;23.75;56.41;99240.91;6837272;28;20206;-78
2021/07/09 19:42:33;;;;;;;9.50;8.53;;;;;;;23.88;56.19;99243.09;6836291;29;20214;-78
2021/07/09 19:45:58;;;;;;;9.67;8.67;;;;;;;23.79;56.71;99241.97;6836248;28;20233;-77
2021/07/09 19:49:23;;;;;;;9.53;8.63;;;;;;;23.41;56.55;99182.06;6861270;28;20230;-78
2021/07/09 19:52:50;;;;;;;9.77;8.63;;;;;;;22.97;57.12;99180.16;6859225;28;20590;-78
